createdAt,value
2023-04-07T00:01:07.261Z,60.81
2023-04-07T00:03:34.369Z,60.57
2023-04-07T00:06:02.238Z,60.67
2023-04-07T00:08:34.331Z,61.68
2023-04-07T00:11:02.325Z,60.54
2023-04-07T00:13:30.886Z,61.04
2023-04-07T00:18:50.720Z,61.02
2023-04-07T00:21:18.346Z,61.13
2023-04-07T00:24:14.457Z,61.26
2023-04-07T00:26:44.268Z,61.02
2023-04-07T00:29:12.293Z,61.42
2023-04-07T00:31:40.359Z,61.20
2023-04-07T00:34:39.256Z,61.31
2023-04-07T00:37:06.480Z,61.44
2023-04-07T00:39:34.370Z,61.07
2023-04-07T00:42:28.240Z,61.56
2023-04-07T00:44:56.238Z,61.49
2023-04-07T00:47:24.406Z,61.31
2023-04-07T00:49:52.289Z,61.48
2023-04-07T00:52:27.268Z,61.63
2023-04-07T00:55:00.601Z,62.06
2023-04-07T00:57:32.301Z,61.93
2023-04-07T01:00:00.506Z,61.62
2023-04-07T01:02:36.860Z,61.97
2023-04-07T01:05:16.371Z,62.07
2023-04-07T01:08:25.528Z,61.91
2023-04-07T01:11:03.621Z,62.19
2023-04-07T01:13:48.240Z,61.81
2023-04-07T01:16:47.561Z,62.12
2023-04-07T01:19:34.677Z,62.47
2023-04-07T01:22:12.665Z,62.43
2023-04-07T01:25:18.159Z,62.54
2023-04-07T01:27:55.112Z,62.38
2023-04-07T01:30:37.965Z,62.66
2023-04-07T01:33:08.301Z,63.01
2023-04-07T01:35:42.912Z,63.01
2023-04-07T01:38:37.459Z,62.73
2023-04-07T01:41:11.544Z,62.70
2023-04-07T01:43:41.378Z,62.78
2023-04-07T01:46:20.382Z,63.20
2023-04-07T01:48:49.166Z,63.04
2023-04-07T01:51:47.771Z,63.44
2023-04-07T01:54:17.655Z,63.86
2023-04-07T01:56:45.128Z,63.76
2023-04-07T01:59:12.583Z,63.93
2023-04-07T02:05:09.324Z,64.93
2023-04-07T02:07:56.023Z,64.65
2023-04-07T02:10:27.044Z,63.89
2023-04-07T02:13:03.956Z,64.11
2023-04-07T02:18:32.159Z,64.06
2023-04-07T02:21:06.941Z,64.28
2023-04-07T02:23:37.708Z,64.67
2023-04-07T02:26:35.476Z,64.54
2023-04-07T02:29:08.950Z,64.82
2023-04-07T02:31:38.272Z,64.67
2023-04-07T02:34:31.564Z,64.57
2023-04-07T02:36:58.258Z,64.48
2023-04-07T02:39:26.231Z,64.55
2023-04-07T02:41:54.356Z,64.52
2023-04-07T02:44:51.387Z,64.62
2023-04-07T02:47:18.267Z,64.61
2023-04-07T02:49:46.390Z,64.41
2023-04-07T02:52:14.335Z,64.63
2023-04-07T02:54:42.248Z,64.55
2023-04-07T02:57:13.651Z,64.82
2023-04-07T03:03:08.389Z,64.25
2023-04-07T03:05:41.230Z,64.30
2023-04-07T03:08:35.697Z,64.15
2023-04-07T03:11:28.265Z,64.16
2023-04-07T03:14:02.287Z,64.55
2023-04-07T03:16:32.321Z,64.02
2023-04-07T03:22:00.491Z,64.16
2023-04-07T03:24:28.267Z,64.33
2023-04-07T03:26:56.261Z,65.02
2023-04-07T03:32:30.304Z,64.16
2023-04-07T03:34:58.272Z,63.86
2023-04-07T03:37:26.479Z,63.89
2023-04-07T03:39:54.338Z,64.14
2023-04-07T03:42:33.382Z,63.78
2023-04-07T03:45:04.527Z,63.94
2023-04-07T03:47:34.233Z,64.44
2023-04-07T03:50:04.554Z,63.67
2023-04-07T03:52:36.249Z,64.32
2023-04-07T03:55:12.214Z,64.11
2023-04-07T03:58:07.336Z,64.11
2023-04-07T04:00:36.635Z,63.80
2023-04-07T04:03:08.638Z,64.15
2023-04-07T04:05:40.841Z,64.45
2023-04-07T04:08:10.241Z,64.15
2023-04-07T04:10:44.320Z,64.17
2023-04-07T04:13:37.651Z,64.65
2023-04-07T04:16:06.997Z,64.58
2023-04-07T04:18:36.217Z,64.37
2023-04-07T04:24:05.274Z,64.66
2023-04-07T04:26:32.229Z,64.75
2023-04-07T04:29:06.367Z,65.06
2023-04-07T04:31:34.359Z,65.17
2023-04-07T04:34:02.441Z,65.49
2023-04-07T04:36:31.190Z,65.32
2023-04-07T04:41:56.774Z,65.44
2023-04-07T04:44:32.286Z,65.73
2023-04-07T04:47:02.370Z,65.48
2023-04-07T04:49:32.223Z,65.86
2023-04-07T04:52:02.369Z,65.84
2023-04-07T04:54:34.225Z,66.08
2023-04-07T04:57:02.532Z,66.05
2023-04-07T04:59:30.369Z,66.15
2023-04-07T05:02:09.851Z,66.95
2023-04-07T05:04:54.917Z,66.90
2023-04-07T05:07:29.153Z,66.87
2023-04-07T05:09:58.328Z,66.92
2023-04-07T05:15:18.354Z,67.03
2023-04-07T05:17:50.561Z,66.50
2023-04-07T05:20:24.284Z,66.65
2023-04-07T05:22:52.358Z,66.99
2023-04-07T05:25:22.290Z,67.08
2023-04-07T05:30:44.255Z,67.23
2023-04-07T05:33:12.306Z,66.94
2023-04-07T05:35:55.350Z,66.61
2023-04-07T05:38:22.298Z,66.26
2023-04-07T05:40:50.603Z,66.07
2023-04-07T05:43:26.250Z,66.03
2023-04-07T05:45:59.303Z,65.64
2023-04-07T05:51:20.302Z,65.22
2023-04-07T05:53:53.443Z,65.07
2023-04-07T05:59:53.231Z,64.68
2023-04-07T06:02:20.513Z,64.32
2023-04-07T06:14:17.189Z,63.33
2023-04-07T06:16:44.396Z,63.26
2023-04-07T06:19:12.372Z,63.09
2023-04-07T06:25:02.309Z,63.01
2023-04-07T06:27:38.162Z,62.63
2023-04-07T06:30:06.910Z,62.18
2023-04-07T06:32:39.636Z,61.90
2023-04-07T06:35:06.584Z,61.68
2023-04-07T06:40:51.587Z,60.97
2023-04-07T06:43:18.258Z,60.40
2023-04-07T06:45:56.427Z,61.63
2023-04-07T06:48:24.263Z,60.14
2023-04-07T06:50:52.656Z,59.72
2023-04-07T06:53:20.446Z,59.29
2023-04-07T06:55:50.219Z,59.38
2023-04-07T07:01:10.309Z,59.51
2023-04-07T07:03:42.390Z,58.79
2023-04-07T07:06:11.047Z,59.29
2023-04-07T07:09:04.341Z,57.45
2023-04-07T07:14:53.242Z,58.05
2023-04-07T07:17:20.261Z,57.38
2023-04-07T07:19:48.312Z,56.30
2023-04-07T07:22:16.405Z,56.23
2023-04-07T07:24:49.262Z,56.15
2023-04-07T07:27:16.291Z,56.12
2023-04-07T07:29:44.246Z,55.27
2023-04-07T07:32:12.278Z,55.07
2023-04-07T07:34:40.334Z,54.94
2023-04-07T07:37:08.313Z,55.07
2023-04-07T07:39:36.610Z,55.33
2023-04-07T07:42:04.264Z,54.47
2023-04-07T07:44:41.286Z,54.46
2023-04-07T07:47:08.336Z,53.71
2023-04-07T07:49:36.324Z,53.10
2023-04-07T07:52:09.889Z,52.84
2023-04-07T07:54:38.336Z,52.68
2023-04-07T07:57:06.239Z,52.42
2023-04-07T07:59:34.478Z,52.15
2023-04-07T08:02:02.254Z,52.88
2023-04-07T08:04:30.280Z,50.99
2023-04-07T08:07:03.454Z,52.86
2023-04-07T08:09:32.434Z,53.31
2023-04-07T08:12:01.239Z,50.42
2023-04-07T08:14:28.300Z,51.24
2023-04-07T08:16:56.290Z,49.88
2023-04-07T08:19:24.736Z,49.81
2023-04-07T08:21:52.463Z,47.98
2023-04-07T08:24:24.279Z,49.95
2023-04-07T08:26:52.262Z,49.49
2023-04-07T08:29:20.248Z,50.83
2023-04-07T08:31:48.275Z,48.17
2023-04-07T08:34:16.541Z,48.57
2023-04-07T08:36:44.264Z,47.90
2023-04-07T08:39:12.395Z,46.78
2023-04-07T08:41:42.316Z,47.38
2023-04-07T08:44:10.616Z,46.06
2023-04-07T08:46:44.039Z,46.75
2023-04-07T08:49:14.060Z,46.88
2023-04-07T08:51:49.485Z,46.78
2023-04-07T08:54:19.062Z,47.09
2023-04-07T08:56:51.341Z,49.24
2023-04-07T08:59:25.364Z,46.64
2023-04-07T09:01:52.809Z,46.49
2023-04-07T09:04:20.632Z,46.48
2023-04-07T09:06:52.234Z,44.92
2023-04-07T09:09:20.280Z,45.01
2023-04-07T09:11:48.590Z,45.14
2023-04-07T09:17:08.300Z,45.51
2023-04-07T09:19:36.293Z,45.71
2023-04-07T09:22:04.307Z,44.28
2023-04-07T09:24:36.242Z,45.01
2023-04-07T09:27:14.642Z,44.88
2023-04-07T09:29:50.313Z,45.07
2023-04-07T09:32:41.462Z,44.02
2023-04-07T09:35:08.684Z,44.28
2023-04-07T09:37:36.410Z,43.37
2023-04-07T09:40:28.336Z,43.95
2023-04-07T09:43:20.364Z,44.24
2023-04-07T09:45:48.282Z,44.42
2023-04-07T09:51:23.333Z,44.08
2023-04-07T09:53:51.811Z,43.67
2023-04-07T09:56:24.829Z,44.12
2023-04-07T09:58:53.052Z,42.94
2023-04-07T10:01:21.686Z,42.19
2023-04-07T10:03:51.589Z,43.71
2023-04-07T10:06:47.441Z,41.27
2023-04-07T10:09:14.693Z,42.64
2023-04-07T10:14:46.887Z,42.95
2023-04-07T10:17:19.203Z,41.95
2023-04-07T10:19:48.859Z,42.83
2023-04-07T10:22:17.313Z,43.17
2023-04-07T10:24:58.666Z,42.54
2023-04-07T10:27:36.868Z,42.71
2023-04-07T10:30:15.560Z,43.18
2023-04-07T10:32:54.665Z,43.34
2023-04-07T10:35:23.488Z,42.56
2023-04-07T10:38:15.428Z,44.44
2023-04-07T10:40:43.250Z,43.32
2023-04-07T10:43:14.860Z,42.92
2023-04-07T10:45:59.671Z,45.12
2023-04-07T10:48:32.871Z,44.54
2023-04-07T10:51:12.547Z,43.04
2023-04-07T10:54:20.406Z,45.01
2023-04-07T10:57:03.430Z,44.75
2023-04-07T10:59:35.798Z,43.52
2023-04-07T11:02:13.634Z,46.86
2023-04-07T11:04:47.234Z,45.60
2023-04-07T11:07:15.525Z,45.05
2023-04-07T11:09:48.265Z,46.03
2023-04-07T11:12:23.649Z,48.87
2023-04-07T11:14:55.337Z,44.70
2023-04-07T11:17:22.719Z,44.05
2023-04-07T11:25:57.474Z,44.22
2023-04-07T11:28:30.876Z,45.64
2023-04-07T11:30:59.986Z,42.65
2023-04-07T11:33:31.325Z,43.24
2023-04-07T11:36:41.551Z,42.95
2023-04-07T11:39:21.788Z,43.79
2023-04-07T11:41:50.771Z,43.22
2023-04-07T11:44:18.391Z,42.11
2023-04-07T11:47:00.339Z,42.38
2023-04-07T11:49:28.559Z,41.93
2023-04-07T11:52:09.757Z,42.36
2023-04-07T11:54:47.226Z,42.28
2023-04-07T11:57:27.777Z,41.38
2023-04-07T12:00:09.445Z,43.13
2023-04-07T12:02:37.052Z,42.70
2023-04-07T12:05:10.710Z,45.32
2023-04-07T12:07:39.540Z,44.88
2023-04-07T12:10:33.036Z,43.93
2023-04-07T12:16:08.006Z,47.63
2023-04-07T12:18:36.588Z,44.53
2023-04-07T12:21:04.662Z,44.04
2023-04-07T12:23:32.225Z,44.49
2023-04-07T12:29:00.342Z,48.49
2023-04-07T12:31:28.417Z,49.76
2023-04-07T12:33:56.980Z,49.94
2023-04-07T12:36:26.082Z,44.94
2023-04-07T12:39:18.887Z,45.33
2023-04-07T12:41:52.585Z,44.80
2023-04-07T12:44:20.404Z,44.56
2023-04-07T12:46:55.665Z,44.07
2023-04-07T12:49:25.194Z,45.01
2023-04-07T12:51:53.098Z,42.17
2023-04-07T12:54:20.310Z,43.32
2023-04-07T12:56:49.123Z,42.86
2023-04-07T12:59:16.268Z,43.57
2023-04-07T13:01:44.401Z,43.95
2023-04-07T13:04:17.419Z,44.80
2023-04-07T13:09:37.537Z,44.23
2023-04-07T13:12:06.372Z,45.11
2023-04-07T13:14:34.291Z,45.52
2023-04-07T13:17:12.530Z,46.85
2023-04-07T13:19:40.695Z,45.74
2023-04-07T13:22:18.234Z,47.38
2023-04-07T13:24:48.479Z,48.30
2023-04-07T13:30:41.792Z,47.76
2023-04-07T13:33:10.400Z,48.15
2023-04-07T13:35:38.503Z,48.93
2023-04-07T13:38:06.717Z,50.12
2023-04-07T13:40:39.655Z,50.66
2023-04-07T13:43:08.323Z,54.85
2023-04-07T13:45:40.338Z,55.95
2023-04-07T13:48:08.611Z,56.29
2023-04-07T13:50:38.980Z,57.40
2023-04-07T13:53:12.482Z,57.58
2023-04-07T13:55:41.254Z,57.97
2023-04-07T13:58:09.120Z,57.86
2023-04-07T14:00:38.598Z,58.46
2023-04-07T14:06:01.332Z,59.21
2023-04-07T14:08:33.871Z,59.26
2023-04-07T14:11:06.835Z,58.07
2023-04-07T14:13:35.275Z,58.19
2023-04-07T14:16:08.291Z,59.38
2023-04-07T14:18:38.178Z,59.21
2023-04-07T14:21:06.444Z,60.16
2023-04-07T14:24:03.831Z,61.35
2023-04-07T14:26:32.293Z,62.31
2023-04-07T14:29:24.224Z,62.43
2023-04-07T14:31:57.688Z,64.12
2023-04-07T14:34:27.073Z,63.19
2023-04-07T14:45:05.539Z,63.95
2023-04-07T14:47:33.047Z,64.87
2023-04-07T14:50:04.193Z,65.71
2023-04-07T14:52:32.678Z,64.96
2023-04-07T14:55:07.671Z,65.79
2023-04-07T14:57:36.331Z,66.00
2023-04-07T15:00:07.473Z,66.41
2023-04-07T15:02:34.853Z,66.31
2023-04-07T15:05:03.388Z,66.95
2023-04-07T15:08:02.328Z,67.22
2023-04-07T15:10:30.367Z,67.29
2023-04-07T15:12:58.556Z,66.73
2023-04-07T15:15:56.169Z,66.07
2023-04-07T15:18:29.601Z,67.13
2023-04-07T15:21:01.265Z,66.29
2023-04-07T15:23:33.643Z,66.08
2023-04-07T15:31:34.837Z,67.00
2023-04-07T15:34:02.333Z,66.07
2023-04-07T15:36:31.351Z,68.05
2023-04-07T15:39:04.254Z,67.12
2023-04-07T15:41:33.816Z,68.83
2023-04-07T15:46:44.746Z,69.36
2023-04-07T16:08:48.010Z,69.89
2023-04-07T16:20:06.507Z,72.65
2023-04-07T16:22:34.566Z,70.83
2023-04-07T16:25:02.489Z,73.03
2023-04-07T16:27:35.384Z,72.10
2023-04-07T16:32:56.321Z,72.38
2023-04-07T16:35:24.802Z,72.44
2023-04-07T16:37:54.717Z,72.00
2023-04-07T16:41:00.651Z,73.34
2023-04-07T16:43:30.313Z,73.33
2023-04-07T16:46:00.211Z,74.04
2023-04-07T16:48:28.420Z,72.41
2023-04-07T16:51:00.419Z,72.92
2023-04-07T16:53:28.255Z,74.15
2023-04-07T16:55:56.337Z,73.90
2023-04-07T16:58:24.314Z,75.20
2023-04-07T17:01:18.819Z,73.62
2023-04-07T17:03:48.845Z,74.97
2023-04-07T17:06:42.225Z,75.27
2023-04-07T17:09:15.792Z,75.47
2023-04-07T17:11:44.286Z,75.40
2023-04-07T17:14:12.323Z,75.73
2023-04-07T17:16:40.419Z,74.86
2023-04-07T17:19:12.361Z,75.84
2023-04-07T17:21:40.261Z,76.89
2023-04-07T17:24:08.256Z,74.08
2023-04-07T17:26:36.341Z,76.90
2023-04-07T17:29:04.217Z,79.47
2023-04-07T17:31:41.431Z,79.29
2023-04-07T17:34:08.707Z,77.73
2023-04-07T17:39:30.297Z,79.25
2023-04-07T17:41:58.286Z,79.63
2023-04-07T17:44:31.463Z,80.17
2023-04-07T17:46:58.879Z,80.95
2023-04-07T17:49:26.620Z,81.77
2023-04-07T17:51:54.258Z,82.41
2023-04-07T17:54:22.386Z,81.70
2023-04-07T17:56:50.376Z,81.29
2023-04-07T17:59:18.313Z,82.27
2023-04-07T18:01:46.514Z,80.63
2023-04-07T18:04:14.982Z,80.19
2023-04-07T18:06:42.376Z,80.51
2023-04-07T18:09:10.330Z,80.73
2023-04-07T18:11:38.400Z,80.07
2023-04-07T18:14:06.606Z,80.74
2023-04-07T18:16:59.380Z,79.74
2023-04-07T18:19:26.355Z,82.10
2023-04-07T18:21:54.414Z,83.35
2023-04-07T18:24:22.290Z,81.12
2023-04-07T18:29:46.520Z,82.17
2023-04-07T18:32:14.296Z,82.46
2023-04-07T18:34:42.339Z,81.91
2023-04-07T18:37:12.794Z,81.77
2023-04-07T18:42:39.311Z,81.28
2023-04-07T18:45:06.876Z,81.53
2023-04-07T18:47:34.347Z,81.90
2023-04-07T18:50:02.257Z,82.80
2023-04-07T18:52:59.297Z,82.60
2023-04-07T18:55:27.032Z,82.48
2023-04-07T18:57:59.215Z,83.16
2023-04-07T19:00:26.584Z,82.24
2023-04-07T19:03:26.733Z,84.53
2023-04-07T19:05:55.388Z,83.23
2023-04-07T19:08:22.253Z,82.94
2023-04-07T19:10:51.160Z,83.28
2023-04-07T19:13:18.909Z,83.97
2023-04-07T19:15:46.593Z,83.13
2023-04-07T19:18:18.304Z,84.36
2023-04-07T19:20:47.052Z,85.13
2023-04-07T19:23:42.146Z,83.50
2023-04-07T19:26:34.946Z,83.34
2023-04-07T19:29:33.254Z,83.66
2023-04-07T19:32:00.528Z,85.05
2023-04-07T19:34:28.303Z,83.48
2023-04-07T19:37:02.242Z,82.82
2023-04-07T19:39:30.502Z,83.36
2023-04-07T19:42:30.942Z,83.15
2023-04-07T19:45:00.375Z,82.93
2023-04-07T19:47:33.999Z,83.83
2023-04-07T19:50:02.978Z,83.43
2023-04-07T19:52:36.069Z,83.46
2023-04-07T19:55:10.602Z,83.27
2023-04-07T19:58:04.280Z,82.31
2023-04-07T20:00:34.957Z,83.14
2023-04-07T20:03:03.509Z,82.72
2023-04-07T20:05:34.291Z,82.16
2023-04-07T20:08:06.405Z,82.87
2023-04-07T20:10:34.243Z,83.25
2023-04-07T20:13:07.377Z,82.66
2023-04-07T20:15:34.225Z,83.53
2023-04-07T20:18:02.944Z,82.10
2023-04-07T20:20:30.565Z,82.97
2023-04-07T20:22:58.247Z,82.31
2023-04-07T20:25:26.264Z,83.53
2023-04-07T20:27:54.270Z,82.89
2023-04-07T20:30:46.839Z,81.46
2023-04-07T20:36:14.263Z,84.62
2023-04-07T20:38:49.778Z,81.63
2023-04-07T20:41:18.312Z,81.96
2023-04-07T20:46:38.475Z,83.18
2023-04-07T20:49:12.801Z,83.12
2023-04-07T20:51:40.225Z,82.54
2023-04-07T20:54:32.883Z,83.85
2023-04-07T20:57:00.912Z,82.20
2023-04-07T20:59:30.152Z,82.09
2023-04-07T21:01:58.420Z,81.48
2023-04-07T21:04:26.436Z,83.25
2023-04-07T21:06:59.268Z,81.95
2023-04-07T21:09:26.301Z,82.95
2023-04-07T21:14:46.353Z,84.12
2023-04-07T21:17:14.524Z,84.09
2023-04-07T21:19:46.380Z,83.87
2023-04-07T21:22:14.329Z,84.86
2023-04-07T21:24:47.338Z,83.98
2023-04-07T21:27:14.291Z,85.22
2023-04-07T21:29:42.581Z,82.66
2023-04-07T21:32:10.630Z,83.47
2023-04-07T21:34:43.269Z,83.02
2023-04-07T21:37:10.304Z,82.34
2023-04-07T21:39:42.246Z,82.83
2023-04-07T21:42:15.261Z,82.97
2023-04-07T21:44:42.229Z,83.71
2023-04-07T21:47:10.252Z,84.11
2023-04-07T21:49:42.332Z,82.95
2023-04-07T21:52:10.331Z,83.23
2023-04-07T21:54:43.262Z,83.47
2023-04-07T21:57:16.912Z,83.55
2023-04-07T21:59:49.246Z,83.28
2023-04-07T22:02:16.335Z,83.15
2023-04-07T22:04:50.617Z,83.89
2023-04-07T22:07:18.525Z,82.35
2023-04-07T22:09:52.111Z,81.88
2023-04-07T22:12:25.561Z,83.72
2023-04-07T22:14:52.229Z,83.45
2023-04-07T22:17:20.275Z,83.16
2023-04-07T22:19:48.216Z,81.96
2023-04-07T22:22:41.188Z,83.37
2023-04-07T22:25:08.699Z,84.85
2023-04-07T22:27:36.321Z,83.21
2023-04-07T22:30:10.087Z,84.18
2023-04-07T22:32:38.399Z,83.13
2023-04-07T22:35:06.687Z,83.18
2023-04-07T22:37:45.248Z,82.52
2023-04-07T22:40:12.272Z,82.43
2023-04-07T22:51:16.420Z,84.61
2023-04-07T22:53:48.575Z,83.12
2023-04-07T22:56:16.305Z,82.47
2023-04-07T22:58:44.358Z,81.10
2023-04-07T23:01:12.496Z,84.79
2023-04-07T23:03:40.318Z,84.89
2023-04-07T23:06:08.297Z,85.68
2023-04-07T23:08:36.221Z,85.07
2023-04-07T23:11:08.028Z,86.64
2023-04-07T23:13:41.365Z,87.01
2023-04-07T23:16:12.289Z,86.53
2023-04-07T23:18:41.607Z,86.29
2023-04-07T23:21:09.139Z,84.84
2023-04-07T23:26:28.222Z,85.66
2023-04-07T23:29:01.218Z,84.99
2023-04-07T23:31:28.311Z,85.88
2023-04-07T23:33:58.599Z,82.66
2023-04-07T23:36:27.143Z,85.16
2023-04-07T23:38:56.088Z,83.64
2023-04-07T23:41:24.426Z,86.35
2023-04-07T23:44:01.303Z,86.97
2023-04-07T23:46:28.440Z,84.08
2023-04-07T23:48:56.207Z,84.20
2023-04-07T23:51:28.454Z,84.19
2023-04-07T23:53:56.320Z,84.18
2023-04-07T23:56:24.231Z,84.21
2023-04-07T23:58:56.267Z,86.63
